createdAt,value
2019-04-29T00:00:58.453Z,0.00
2019-04-29T00:01:58.441Z,0.00
2019-04-29T00:02:58.475Z,0.00
2019-04-29T00:03:58.408Z,0.00
2019-04-29T00:04:58.401Z,0.00
2019-04-29T00:05:58.405Z,0.00
2019-04-29T00:06:58.401Z,0.00
2019-04-29T00:07:58.376Z,0.00
2019-04-29T00:08:58.381Z,0.00
2019-04-29T00:09:58.365Z,0.00
2019-04-29T00:10:58.341Z,0.00
2019-04-29T00:11:58.350Z,0.00
2019-04-29T00:12:58.350Z,0.00
2019-04-29T00:13:58.316Z,0.00
2019-04-29T00:14:58.310Z,0.00
2019-04-29T00:15:58.286Z,0.00
2019-04-29T00:16:58.278Z,0.00
2019-04-29T00:17:58.290Z,0.00
2019-04-29T00:18:58.248Z,0.00
2019-04-29T00:19:58.253Z,0.00
2019-04-29T00:20:58.244Z,0.00
2019-04-29T00:21:58.225Z,0.00
2019-04-29T00:22:58.215Z,0.00
2019-04-29T00:24:04.056Z,0.00
2019-04-29T00:24:59.199Z,0.00
2019-04-29T00:25:58.185Z,0.00
2019-04-29T00:26:58.162Z,0.00
2019-04-29T00:27:58.155Z,0.00
2019-04-29T00:28:58.235Z,0.00
2019-04-29T00:29:58.169Z,0.00
2019-04-29T00:30:58.115Z,0.00
2019-04-29T00:31:58.110Z,0.00
2019-04-29T00:32:58.104Z,0.00
2019-04-29T00:33:58.090Z,0.00
2019-04-29T00:34:58.073Z,0.00
2019-04-29T00:35:58.089Z,0.00
2019-04-29T00:36:58.085Z,0.00
2019-04-29T00:37:58.064Z,0.00
2019-04-29T00:38:58.039Z,0.00
2019-04-29T00:39:58.014Z,0.00
2019-04-29T00:40:58.010Z,0.00
2019-04-29T00:41:58.021Z,0.00
2019-04-29T00:42:57.995Z,0.00
2019-04-29T00:43:57.999Z,0.00
2019-04-29T00:44:57.974Z,0.00
2019-04-29T00:45:57.976Z,0.00
2019-04-29T00:46:57.974Z,0.00
2019-04-29T00:47:57.937Z,0.00
2019-04-29T00:48:57.948Z,0.00
2019-04-29T00:49:57.918Z,0.00
2019-04-29T00:50:57.891Z,0.00
2019-04-29T00:51:57.902Z,0.00
2019-04-29T00:52:57.883Z,0.00
2019-04-29T00:53:57.889Z,0.00
2019-04-29T00:54:57.863Z,0.00
2019-04-29T00:55:57.863Z,0.00
2019-04-29T00:56:57.842Z,0.00
2019-04-29T00:57:57.835Z,0.00
2019-04-29T00:58:57.873Z,0.00
2019-04-29T00:59:57.805Z,0.00
2019-04-29T01:00:57.788Z,0.00
2019-04-29T01:01:57.773Z,0.00
2019-04-29T01:02:57.786Z,0.00
2019-04-29T01:03:57.776Z,0.00
2019-04-29T01:04:57.753Z,0.00
2019-04-29T01:05:57.743Z,0.00
2019-04-29T01:06:57.741Z,0.00
2019-04-29T01:07:57.709Z,0.00
2019-04-29T01:08:57.701Z,0.00
2019-04-29T01:09:57.735Z,0.00
2019-04-29T01:10:57.684Z,0.00
2019-04-29T01:11:57.671Z,0.00
2019-04-29T01:12:57.657Z,0.00
2019-04-29T01:13:57.644Z,0.00
2019-04-29T01:14:57.646Z,0.00
2019-04-29T01:15:57.659Z,0.00
2019-04-29T01:16:57.623Z,0.00
2019-04-29T01:17:57.637Z,0.00
2019-04-29T01:18:57.614Z,0.00
2019-04-29T01:19:57.576Z,0.00
2019-04-29T01:20:57.573Z,0.00
2019-04-29T01:21:57.574Z,0.00
2019-04-29T01:22:57.556Z,0.00
2019-04-29T01:23:57.554Z,0.00
2019-04-29T01:24:57.544Z,0.00
2019-04-29T01:25:57.515Z,0.00
2019-04-29T01:26:57.530Z,0.00
2019-04-29T01:27:57.510Z,0.00
2019-04-29T01:28:57.491Z,0.00
2019-04-29T01:29:57.495Z,0.00
2019-04-29T01:30:57.486Z,0.00
2019-04-29T01:31:57.460Z,0.00
2019-04-29T01:32:57.438Z,0.00
2019-04-29T01:33:57.427Z,0.00
2019-04-29T01:34:57.418Z,0.00
2019-04-29T01:35:57.412Z,0.00
2019-04-29T01:36:57.419Z,0.00
2019-04-29T01:37:57.392Z,0.00
2019-04-29T01:38:57.412Z,0.00
2019-04-29T01:39:57.358Z,0.00
2019-04-29T01:40:57.351Z,0.00
2019-04-29T01:41:57.355Z,0.00
2019-04-29T01:42:57.350Z,0.00
2019-04-29T01:43:57.314Z,0.00
2019-04-29T01:44:57.319Z,0.00
2019-04-29T01:45:57.294Z,0.00
2019-04-29T01:46:57.291Z,0.00
2019-04-29T01:47:57.295Z,0.00
2019-04-29T01:48:57.292Z,0.00
2019-04-29T01:49:57.255Z,0.00
2019-04-29T01:50:57.242Z,0.00
2019-04-29T01:51:57.228Z,0.00
2019-04-29T01:52:57.234Z,0.00
2019-04-29T01:53:57.209Z,0.00
2019-04-29T01:54:57.198Z,0.00
2019-04-29T01:55:57.215Z,0.00
2019-04-29T01:56:57.189Z,0.00
2019-04-29T01:57:57.189Z,0.00
2019-04-29T01:58:57.157Z,0.00
2019-04-29T01:59:57.150Z,0.00
2019-04-29T02:00:57.148Z,0.00
2019-04-29T02:01:57.130Z,0.00
2019-04-29T02:02:57.137Z,0.00
2019-04-29T02:03:57.108Z,0.00
2019-04-29T02:04:57.103Z,0.00
2019-04-29T02:05:57.088Z,0.00
2019-04-29T02:06:57.067Z,0.00
2019-04-29T02:07:57.060Z,0.00
2019-04-29T02:08:57.074Z,0.00
2019-04-29T02:09:57.061Z,0.00
2019-04-29T02:10:57.032Z,0.00
2019-04-29T02:11:57.012Z,0.00
2019-04-29T02:12:57.021Z,0.00
2019-04-29T02:13:56.999Z,0.00
2019-04-29T02:14:56.989Z,0.00
2019-04-29T02:15:56.974Z,0.00
2019-04-29T02:16:56.955Z,0.00
2019-04-29T02:17:56.962Z,0.00
2019-04-29T02:18:56.938Z,0.00
2019-04-29T02:19:56.939Z,0.00
2019-04-29T02:20:56.917Z,0.00
2019-04-29T02:21:56.918Z,0.00
2019-04-29T02:22:56.929Z,0.00
2019-04-29T02:23:56.871Z,0.00
2019-04-29T02:24:56.871Z,0.00
2019-04-29T02:25:56.878Z,0.00
2019-04-29T02:26:56.839Z,0.00
2019-04-29T02:27:56.853Z,0.00
2019-04-29T02:28:56.883Z,0.00
2019-04-29T02:29:56.814Z,0.00
2019-04-29T02:30:56.800Z,0.00
2019-04-29T02:31:56.791Z,0.00
2019-04-29T02:32:56.816Z,0.00
2019-04-29T02:33:56.782Z,0.00
2019-04-29T02:34:56.788Z,0.00
2019-04-29T02:35:56.751Z,0.00
2019-04-29T02:36:56.756Z,0.00
2019-04-29T02:37:56.738Z,0.00
2019-04-29T02:38:56.735Z,0.00
2019-04-29T02:39:56.708Z,0.00
2019-04-29T02:40:56.701Z,0.00
2019-04-29T02:41:56.695Z,0.00
2019-04-29T02:42:56.679Z,0.00
2019-04-29T02:43:56.679Z,0.00
2019-04-29T02:44:56.664Z,0.00
2019-04-29T02:45:56.660Z,0.00
2019-04-29T02:46:56.626Z,0.00
2019-04-29T02:47:56.648Z,0.00
2019-04-29T02:48:56.627Z,0.00
2019-04-29T02:49:56.593Z,0.00
2019-04-29T02:50:56.581Z,0.00
2019-04-29T02:51:56.578Z,0.00
2019-04-29T02:52:56.568Z,0.00
2019-04-29T02:53:56.574Z,0.00
2019-04-29T02:54:56.537Z,0.00
2019-04-29T02:55:56.528Z,0.00
2019-04-29T02:56:56.514Z,0.00
2019-04-29T02:57:56.508Z,0.00
2019-04-29T02:58:56.515Z,0.00
2019-04-29T02:59:56.494Z,0.00
2019-04-29T03:00:56.481Z,0.00
2019-04-29T03:01:56.460Z,0.00
2019-04-29T03:02:56.454Z,0.00
2019-04-29T03:03:56.481Z,0.00
2019-04-29T03:04:56.439Z,0.00
2019-04-29T03:05:56.440Z,0.00
2019-04-29T03:06:56.423Z,0.00
2019-04-29T03:07:56.394Z,0.00
2019-04-29T03:08:56.404Z,4.00
2019-04-29T03:09:56.387Z,4.00
2019-04-29T03:10:56.416Z,4.00
2019-04-29T03:11:56.375Z,0.00
2019-04-29T03:12:56.353Z,4.00
2019-04-29T03:13:56.342Z,4.00
2019-04-29T03:14:56.345Z,4.00
2019-04-29T03:15:56.313Z,4.00
2019-04-29T03:16:56.317Z,4.00
2019-04-29T03:17:56.295Z,8.00
2019-04-29T03:18:56.284Z,4.00
2019-04-29T03:19:56.283Z,4.00
2019-04-29T03:20:56.250Z,8.00
2019-04-29T03:21:56.266Z,8.00
2019-04-29T03:22:56.226Z,8.00
2019-04-29T03:23:56.235Z,8.00
2019-04-29T03:24:56.249Z,12.00
2019-04-29T03:25:56.210Z,12.00
2019-04-29T03:26:56.194Z,12.00
2019-04-29T03:27:56.169Z,16.00
2019-04-29T03:28:56.157Z,20.00
2019-04-29T03:29:56.171Z,24.00
2019-04-29T03:30:56.131Z,24.00
2019-04-29T03:31:56.255Z,28.00
2019-04-29T03:32:56.122Z,32.00
2019-04-29T03:33:56.110Z,32.00
2019-04-29T03:34:56.132Z,36.00
2019-04-29T03:35:56.101Z,48.00
2019-04-29T03:36:56.097Z,44.00
2019-04-29T03:37:56.069Z,36.00
2019-04-29T03:38:56.065Z,40.00
2019-04-29T03:39:56.067Z,68.00
2019-04-29T03:40:56.033Z,84.00
2019-04-29T03:41:56.017Z,80.00
2019-04-29T03:42:56.066Z,84.00
2019-04-29T03:43:56.002Z,88.00
2019-04-29T03:44:56.171Z,84.00
2019-04-29T03:45:56.004Z,100.00
2019-04-29T03:46:55.972Z,108.00
2019-04-29T03:47:55.955Z,112.00
2019-04-29T03:48:55.946Z,120.00
2019-04-29T03:49:55.940Z,132.00
2019-04-29T03:50:55.945Z,172.00
2019-04-29T03:51:56.009Z,184.00
2019-04-29T03:52:55.908Z,172.00
2019-04-29T03:53:55.892Z,176.00
2019-04-29T03:54:55.889Z,160.00
2019-04-29T03:55:55.901Z,184.00
2019-04-29T03:56:55.857Z,212.00
2019-04-29T03:57:55.856Z,248.00
2019-04-29T03:58:55.892Z,244.00
2019-04-29T03:59:57.095Z,228.00
2019-04-29T04:00:55.812Z,216.00
2019-04-29T04:01:55.811Z,188.00
2019-04-29T04:02:55.786Z,224.00
2019-04-29T04:03:55.783Z,252.00
2019-04-29T04:04:55.808Z,300.00
2019-04-29T04:05:55.753Z,312.00
2019-04-29T04:06:55.744Z,364.00
2019-04-29T04:07:55.748Z,360.00
2019-04-29T04:09:05.592Z,344.00
2019-04-29T04:09:57.199Z,364.00
2019-04-29T04:10:55.722Z,436.00
2019-04-29T04:11:55.685Z,512.00
2019-04-29T04:12:55.673Z,480.00
2019-04-29T04:13:55.669Z,452.00
2019-04-29T04:14:55.650Z,440.00
2019-04-29T04:15:56.070Z,524.00
2019-04-29T04:16:55.643Z,480.00
2019-04-29T04:17:55.643Z,556.00
2019-04-29T04:18:55.622Z,712.00
2019-04-29T04:19:55.611Z,676.00
2019-04-29T04:20:55.604Z,588.00
2019-04-29T04:21:55.604Z,576.00
2019-04-29T04:22:55.576Z,564.00
2019-04-29T04:23:58.182Z,624.00
2019-04-29T04:24:55.552Z,616.00
2019-04-29T04:25:55.565Z,828.00
2019-04-29T04:26:55.528Z,720.00
2019-04-29T04:27:55.518Z,728.00
2019-04-29T04:28:55.512Z,652.00
2019-04-29T04:29:55.498Z,744.00
2019-04-29T04:30:55.491Z,748.00
2019-04-29T04:31:55.503Z,672.00
2019-04-29T04:32:55.454Z,764.00
2019-04-29T04:33:55.465Z,904.00
2019-04-29T04:34:55.440Z,976.00
2019-04-29T04:35:55.443Z,1176.00
2019-04-29T04:36:55.448Z,1052.00
2019-04-29T04:37:55.402Z,1060.00
2019-04-29T04:38:55.386Z,1012.00
2019-04-29T04:39:55.391Z,1060.00
2019-04-29T04:40:55.378Z,1268.00
2019-04-29T04:41:55.386Z,1324.00
2019-04-29T04:42:55.365Z,1100.00
2019-04-29T04:43:55.356Z,1272.00
2019-04-29T04:44:55.338Z,1396.00
2019-04-29T04:45:55.322Z,1720.00
2019-04-29T04:46:55.324Z,1652.00
2019-04-29T04:47:55.304Z,1264.00
2019-04-29T04:48:55.304Z,1432.00
2019-04-29T04:49:55.291Z,1472.00
2019-04-29T04:50:55.266Z,1208.00
2019-04-29T04:51:55.257Z,1540.00
2019-04-29T04:52:55.253Z,1736.00
2019-04-29T04:53:55.244Z,1424.00
2019-04-29T04:54:55.225Z,1648.00
2019-04-29T04:55:55.218Z,1884.00
2019-04-29T04:56:55.217Z,1684.00
2019-04-29T04:57:55.186Z,1780.00
2019-04-29T04:58:55.177Z,1920.00
2019-04-29T04:59:55.164Z,1496.00
2019-04-29T05:00:55.157Z,1336.00
2019-04-29T05:01:55.168Z,1684.00
2019-04-29T05:02:55.213Z,1452.00
2019-04-29T05:03:55.119Z,1428.00
2019-04-29T05:04:55.127Z,1360.00
2019-04-29T05:05:55.103Z,1212.00
2019-04-29T05:06:55.100Z,1116.00
2019-04-29T05:07:55.073Z,1116.00
2019-04-29T05:08:55.089Z,1196.00
2019-04-29T05:09:55.059Z,1168.00
2019-04-29T05:10:55.041Z,1664.00
2019-04-29T05:11:55.052Z,1888.00
2019-04-29T05:12:55.027Z,1972.00
2019-04-29T05:13:55.026Z,1704.00
2019-04-29T05:14:55.006Z,1776.00
2019-04-29T05:15:54.985Z,1676.00
2019-04-29T05:16:54.998Z,1708.00
2019-04-29T05:17:54.966Z,2016.00
2019-04-29T05:18:54.945Z,2476.00
2019-04-29T05:19:54.945Z,2224.00
2019-04-29T05:20:54.958Z,1772.00
2019-04-29T05:21:54.945Z,2272.00
2019-04-29T05:22:54.911Z,1964.00
2019-04-29T05:23:54.919Z,1784.00
2019-04-29T05:24:54.889Z,2716.00
2019-04-29T05:25:54.879Z,3308.00
2019-04-29T05:26:54.901Z,2596.00
2019-04-29T05:27:54.867Z,2100.00
2019-04-29T05:28:54.844Z,2624.00
2019-04-29T05:29:54.828Z,3904.00
2019-04-29T05:30:54.814Z,2660.00
2019-04-29T05:31:54.838Z,1916.00
2019-04-29T05:32:54.813Z,1652.00
2019-04-29T05:33:54.794Z,1728.00
2019-04-29T05:34:55.140Z,2552.00
2019-04-29T05:35:56.888Z,3076.00
2019-04-29T05:36:55.776Z,2840.00
2019-04-29T05:37:56.795Z,2500.00
2019-04-29T05:38:54.729Z,1816.00
2019-04-29T05:39:54.728Z,1664.00
2019-04-29T05:40:56.859Z,1572.00
2019-04-29T05:41:54.720Z,1416.00
2019-04-29T05:42:54.724Z,1124.00
2019-04-29T05:43:54.685Z,1672.00
2019-04-29T05:44:54.686Z,2012.00
2019-04-29T05:45:54.664Z,2048.00
2019-04-29T05:46:54.674Z,1400.00
2019-04-29T05:47:56.979Z,1048.00
2019-04-29T05:48:54.621Z,940.00
2019-04-29T05:49:54.634Z,1136.00
2019-04-29T05:50:54.621Z,1276.00
2019-04-29T05:51:57.609Z,1388.00
2019-04-29T05:52:55.586Z,1532.00
2019-04-29T05:53:55.852Z,1092.00
2019-04-29T05:54:54.564Z,864.00
2019-04-29T05:55:54.548Z,872.00
2019-04-29T05:56:54.552Z,1004.00
2019-04-29T05:57:55.854Z,1324.00
2019-04-29T05:58:55.519Z,1112.00
2019-04-29T05:59:54.504Z,1040.00
2019-04-29T06:00:54.487Z,844.00
2019-04-29T06:01:54.508Z,764.00
2019-04-29T06:02:54.470Z,768.00
2019-04-29T06:03:54.462Z,872.00
2019-04-29T06:04:54.467Z,1120.00
2019-04-29T06:05:54.444Z,1160.00
2019-04-29T06:06:54.433Z,1116.00
2019-04-29T06:07:56.210Z,1172.00
2019-04-29T06:08:55.409Z,1052.00
2019-04-29T06:09:54.395Z,1248.00
2019-04-29T06:10:54.381Z,1340.00
2019-04-29T06:11:54.376Z,1552.00
2019-04-29T06:12:54.387Z,1456.00
2019-04-29T06:13:54.347Z,1536.00
2019-04-29T06:14:54.334Z,1660.00
2019-04-29T06:15:54.411Z,1692.00
2019-04-29T06:16:57.596Z,1624.00
2019-04-29T06:17:55.335Z,1484.00
2019-04-29T06:18:59.786Z,1456.00
2019-04-29T06:19:55.281Z,1624.00
2019-04-29T06:21:07.889Z,1940.00
2019-04-29T06:21:55.259Z,1764.00
2019-04-29T06:22:54.270Z,1632.00
2019-04-29T06:23:54.738Z,1700.00
2019-04-29T06:24:54.239Z,1968.00
2019-04-29T06:25:54.231Z,2016.00
2019-04-29T06:26:54.216Z,2072.00
2019-04-29T06:27:54.216Z,2192.00
2019-04-29T06:28:54.187Z,2072.00
2019-04-29T06:29:54.176Z,2304.00
2019-04-29T06:30:54.186Z,2628.00
2019-04-29T06:31:54.166Z,2500.00
2019-04-29T06:32:54.177Z,2964.00
2019-04-29T06:33:54.123Z,3280.00
2019-04-29T06:34:54.116Z,3848.00
2019-04-29T06:35:56.928Z,5704.00
2019-04-29T06:36:54.099Z,4856.00
2019-04-29T06:37:54.115Z,6360.00
2019-04-29T06:38:54.080Z,7312.00
2019-04-29T06:39:54.058Z,7128.00
2019-04-29T06:40:54.051Z,6376.00
2019-04-29T06:41:54.056Z,5748.00
2019-04-29T06:42:55.203Z,5588.00
2019-04-29T06:43:56.060Z,4912.00
2019-04-29T06:44:54.000Z,4592.00
2019-04-29T06:45:53.994Z,4708.00
2019-04-29T06:46:54.574Z,4408.00
2019-04-29T06:47:53.997Z,4268.00
2019-04-29T06:48:53.974Z,4712.00
2019-04-29T06:49:53.951Z,4096.00
2019-04-29T06:50:53.970Z,4564.00
2019-04-29T06:51:53.938Z,4300.00
2019-04-29T06:52:53.936Z,4680.00
2019-04-29T06:53:53.901Z,4032.00
2019-04-29T06:54:53.916Z,4764.00
2019-04-29T06:55:53.893Z,4588.00
2019-04-29T06:56:53.868Z,4824.00
2019-04-29T06:57:53.882Z,4276.00
2019-04-29T06:58:53.849Z,3912.00
2019-04-29T06:59:54.905Z,4004.00
2019-04-29T07:00:55.929Z,3584.00
2019-04-29T07:01:54.833Z,3448.00
2019-04-29T07:02:53.840Z,3048.00
2019-04-29T07:03:55.735Z,3152.00
2019-04-29T07:04:54.784Z,3072.00
2019-04-29T07:05:53.774Z,3312.00
2019-04-29T07:06:57.510Z,2984.00
2019-04-29T07:07:53.767Z,2960.00
2019-04-29T07:08:53.748Z,3264.00
2019-04-29T07:09:56.706Z,3156.00
2019-04-29T07:10:55.894Z,3516.00
2019-04-29T07:12:01.131Z,3648.00
2019-04-29T07:12:54.723Z,3304.00
2019-04-29T07:13:57.695Z,3988.00
2019-04-29T07:14:54.678Z,3464.00
2019-04-29T07:15:53.673Z,4020.00
2019-04-29T07:16:53.646Z,3576.00
2019-04-29T07:17:53.665Z,3808.00
2019-04-29T07:18:53.892Z,4156.00
2019-04-29T07:19:57.447Z,3788.00
2019-04-29T07:20:54.611Z,3196.00
2019-04-29T07:21:56.458Z,3296.00
2019-04-29T07:22:56.536Z,3320.00
2019-04-29T07:23:54.585Z,3172.00
2019-04-29T07:24:53.570Z,3852.00
2019-04-29T07:25:53.554Z,5696.00
2019-04-29T07:26:53.545Z,7076.00
2019-04-29T07:27:53.533Z,6484.00
2019-04-29T07:28:55.285Z,8116.00
2019-04-29T07:29:53.509Z,6868.00
2019-04-29T07:31:02.662Z,7684.00
2019-04-29T07:31:54.489Z,5184.00
2019-04-29T07:32:53.489Z,5900.00
2019-04-29T07:33:57.548Z,5120.00
2019-04-29T07:34:53.465Z,6604.00
2019-04-29T07:35:53.451Z,5460.00
2019-04-29T07:36:57.618Z,5836.00
2019-04-29T07:37:54.418Z,5104.00
2019-04-29T07:38:56.695Z,5228.00
2019-04-29T07:39:53.394Z,5488.00
2019-04-29T07:40:53.398Z,5936.00
2019-04-29T07:41:53.740Z,5060.00
2019-04-29T07:42:53.362Z,5480.00
2019-04-29T07:43:53.382Z,4564.00
2019-04-29T07:44:54.163Z,5280.00
2019-04-29T07:45:53.340Z,5420.00
2019-04-29T07:47:00.370Z,7204.00
2019-04-29T07:47:56.704Z,8088.00
2019-04-29T07:49:01.467Z,7140.00
2019-04-29T07:49:54.303Z,6140.00
2019-04-29T07:50:53.277Z,7080.00
2019-04-29T07:51:53.270Z,5576.00
2019-04-29T07:52:53.284Z,5544.00
2019-04-29T07:53:53.273Z,5312.00
2019-04-29T07:54:56.126Z,4172.00
2019-04-29T07:55:53.232Z,3644.00
2019-04-29T07:56:53.208Z,3624.00
2019-04-29T07:57:53.277Z,3332.00
2019-04-29T07:58:53.236Z,2976.00
2019-04-29T07:59:53.187Z,3396.00
2019-04-29T08:00:56.142Z,3516.00
2019-04-29T08:01:55.591Z,3228.00
2019-04-29T08:02:54.132Z,3348.00
2019-04-29T08:03:53.134Z,3212.00
2019-04-29T08:04:53.599Z,2964.00
2019-04-29T08:05:53.116Z,3568.00
2019-04-29T08:06:53.121Z,3056.00
2019-04-29T08:07:53.094Z,2872.00
2019-04-29T08:08:55.134Z,4028.00
2019-04-29T08:09:53.107Z,4164.00
2019-04-29T08:10:56.583Z,4604.00
2019-04-29T08:11:53.047Z,3888.00
2019-04-29T08:12:53.043Z,5980.00
2019-04-29T08:13:53.102Z,3744.00
2019-04-29T08:14:53.305Z,4584.00
2019-04-29T08:15:53.023Z,3716.00
2019-04-29T08:16:53.006Z,3148.00
2019-04-29T08:18:05.945Z,3160.00
2019-04-29T08:18:54.920Z,2908.00
2019-04-29T08:19:53.006Z,2644.00
2019-04-29T08:20:52.947Z,2152.00
2019-04-29T08:21:52.941Z,2008.00
2019-04-29T08:22:52.919Z,2156.00
2019-04-29T08:23:52.939Z,2608.00
2019-04-29T08:24:52.922Z,2472.00
2019-04-29T08:25:57.311Z,3776.00
2019-04-29T08:26:53.891Z,3560.00
2019-04-29T08:27:52.876Z,4492.00
2019-04-29T08:28:59.934Z,5248.00
2019-04-29T08:29:53.846Z,3580.00
2019-04-29T08:30:52.841Z,4884.00
2019-04-29T08:31:57.305Z,5724.00
2019-04-29T08:32:53.803Z,5580.00
2019-04-29T08:33:52.819Z,5688.00
2019-04-29T08:34:53.613Z,5840.00
2019-04-29T08:35:52.794Z,5312.00
2019-04-29T08:36:52.773Z,6776.00
2019-04-29T08:37:52.765Z,6240.00
2019-04-29T08:38:52.756Z,5768.00
2019-04-29T08:40:08.473Z,6248.00
2019-04-29T08:40:53.748Z,7176.00
2019-04-29T08:41:52.719Z,6604.00
2019-04-29T08:42:52.704Z,6516.00
2019-04-29T08:43:57.766Z,7756.00
2019-04-29T08:44:54.792Z,5440.00
2019-04-29T08:45:53.721Z,5708.00
2019-04-29T08:46:52.906Z,7900.00
2019-04-29T08:47:52.652Z,6292.00
2019-04-29T08:48:52.649Z,5928.00
2019-04-29T08:49:52.652Z,6628.00
2019-04-29T08:50:52.644Z,6104.00
2019-04-29T08:51:52.617Z,6588.00
2019-04-29T08:52:52.585Z,7580.00
2019-04-29T08:53:52.575Z,7904.00
2019-04-29T08:54:55.478Z,8260.00
2019-04-29T08:55:52.596Z,9292.00
2019-04-29T08:57:02.789Z,11928.00
2019-04-29T08:57:53.553Z,11284.00
2019-04-29T08:58:52.536Z,12424.00
2019-04-29T08:59:52.514Z,13036.00
2019-04-29T09:00:55.707Z,13136.00
2019-04-29T09:01:52.498Z,15960.00
2019-04-29T09:02:52.484Z,23872.00
2019-04-29T09:03:53.632Z,25664.00
2019-04-29T09:04:54.077Z,20576.00
2019-04-29T09:06:05.071Z,20512.00
2019-04-29T09:06:53.454Z,18944.00
2019-04-29T09:07:56.778Z,19840.00
2019-04-29T09:08:55.088Z,18208.00
2019-04-29T09:09:56.290Z,19008.00
2019-04-29T09:10:53.437Z,19968.00
2019-04-29T09:11:52.404Z,19008.00
2019-04-29T09:12:52.406Z,23680.00
2019-04-29T09:13:52.386Z,28352.00
2019-04-29T09:14:52.396Z,30272.00
2019-04-29T09:15:52.358Z,26816.00
2019-04-29T09:16:52.376Z,26272.00
2019-04-29T09:17:52.321Z,26816.00
2019-04-29T09:18:52.300Z,27584.00
2019-04-29T09:19:52.322Z,31424.00
2019-04-29T09:20:52.296Z,27200.00
2019-04-29T09:21:52.283Z,23264.00
2019-04-29T09:22:52.268Z,14696.00
2019-04-29T09:23:52.266Z,14688.00
2019-04-29T09:24:52.276Z,13688.00
2019-04-29T09:26:02.593Z,15824.00
2019-04-29T09:26:53.218Z,14340.00
2019-04-29T09:27:52.238Z,14076.00
2019-04-29T09:28:52.207Z,14680.00
2019-04-29T09:29:54.299Z,14988.00
2019-04-29T09:30:53.192Z,14804.00
2019-04-29T09:31:52.166Z,12432.00
2019-04-29T09:32:52.167Z,13860.00
2019-04-29T09:33:59.689Z,13520.00
2019-04-29T09:34:55.501Z,13364.00
2019-04-29T09:35:53.141Z,11896.00
2019-04-29T09:36:52.100Z,13328.00
2019-04-29T09:37:53.872Z,14368.00
2019-04-29T09:38:53.081Z,12756.00
2019-04-29T09:39:52.072Z,11856.00
2019-04-29T09:40:54.513Z,11548.00
2019-04-29T09:41:53.051Z,11912.00
2019-04-29T09:42:52.041Z,10984.00
2019-04-29T09:43:52.052Z,10584.00
2019-04-29T09:44:52.022Z,10036.00
2019-04-29T09:45:53.918Z,11884.00
2019-04-29T09:46:52.984Z,11424.00
2019-04-29T09:47:51.978Z,10804.00
2019-04-29T09:48:52.024Z,12356.00
2019-04-29T09:49:51.970Z,9608.00
2019-04-29T09:50:51.942Z,10116.00
2019-04-29T09:51:51.931Z,8628.00
2019-04-29T09:52:51.922Z,11180.00
2019-04-29T09:53:51.939Z,10192.00
2019-04-29T09:54:51.919Z,9632.00
2019-04-29T09:55:51.903Z,10156.00
2019-04-29T09:56:51.902Z,10988.00
2019-04-29T09:57:51.875Z,12452.00
2019-04-29T09:58:51.854Z,11240.00
2019-04-29T09:59:51.845Z,11528.00
2019-04-29T10:00:51.838Z,10232.00
2019-04-29T10:01:54.993Z,12144.00
2019-04-29T10:02:51.820Z,12436.00
2019-04-29T10:03:51.812Z,10312.00
2019-04-29T10:04:56.894Z,11456.00
2019-04-29T10:05:52.775Z,13020.00
2019-04-29T10:06:51.791Z,12108.00
2019-04-29T10:07:51.763Z,11048.00
2019-04-29T10:08:51.745Z,12384.00
2019-04-29T10:09:57.555Z,10412.00
2019-04-29T10:10:52.726Z,10216.00
2019-04-29T10:11:51.727Z,12112.00
2019-04-29T10:12:53.889Z,12444.00
2019-04-29T10:13:51.704Z,12808.00
2019-04-29T10:14:51.684Z,14188.00
2019-04-29T10:15:51.669Z,12956.00
2019-04-29T10:16:51.689Z,11488.00
2019-04-29T10:17:55.482Z,11188.00
2019-04-29T10:18:51.633Z,13680.00
2019-04-29T10:19:51.623Z,13288.00
2019-04-29T10:20:51.624Z,12208.00
2019-04-29T10:21:51.632Z,12300.00
2019-04-29T10:22:53.706Z,13052.00
2019-04-29T10:23:51.579Z,12976.00
2019-04-29T10:24:51.580Z,9376.00
2019-04-29T10:25:51.557Z,10492.00
2019-04-29T10:26:51.552Z,9408.00
2019-04-29T10:27:51.572Z,11932.00
2019-04-29T10:28:51.525Z,11720.00
2019-04-29T10:29:55.355Z,9896.00
2019-04-29T10:30:52.502Z,10004.00
2019-04-29T10:31:51.482Z,9084.00
2019-04-29T10:32:51.526Z,10524.00
2019-04-29T10:33:54.819Z,9868.00
2019-04-29T10:34:51.468Z,9852.00
2019-04-29T10:35:51.460Z,9484.00
2019-04-29T10:36:52.570Z,10636.00
2019-04-29T10:37:51.443Z,10328.00
2019-04-29T10:38:51.430Z,11072.00
2019-04-29T10:39:51.473Z,11568.00
2019-04-29T10:40:51.396Z,10976.00
2019-04-29T10:41:51.381Z,11800.00
2019-04-29T10:42:51.376Z,11952.00
2019-04-29T10:43:53.555Z,13564.00
2019-04-29T10:44:51.358Z,13176.00
2019-04-29T10:45:51.343Z,13468.00
2019-04-29T10:46:51.338Z,12036.00
2019-04-29T10:47:51.347Z,11572.00
2019-04-29T10:48:51.298Z,12460.00
2019-04-29T10:49:51.325Z,12392.00
2019-04-29T10:50:51.987Z,14640.00
2019-04-29T10:51:51.268Z,10872.00
2019-04-29T10:52:51.288Z,13324.00
2019-04-29T10:53:52.655Z,16032.00
2019-04-29T10:54:55.214Z,12728.00
2019-04-29T10:55:52.214Z,18624.00
2019-04-29T10:56:51.219Z,15572.00
2019-04-29T10:57:51.498Z,16692.00
2019-04-29T10:58:51.217Z,14904.00
2019-04-29T10:59:51.221Z,15488.00
2019-04-29T11:00:52.746Z,17728.00
2019-04-29T11:02:00.991Z,14356.00
2019-04-29T11:02:52.139Z,11888.00
2019-04-29T11:03:51.152Z,11876.00
2019-04-29T11:04:51.135Z,15932.00
2019-04-29T11:06:00.434Z,13592.00
2019-04-29T11:06:52.112Z,13068.00
2019-04-29T11:07:51.096Z,12188.00
2019-04-29T11:08:51.105Z,13280.00
2019-04-29T11:09:52.536Z,12772.00
2019-04-29T11:10:51.061Z,13916.00
2019-04-29T11:11:51.043Z,13328.00
2019-04-29T11:12:51.037Z,12532.00
2019-04-29T11:13:51.055Z,15588.00
2019-04-29T11:14:51.006Z,14368.00
2019-04-29T11:15:51.312Z,13640.00
2019-04-29T11:16:50.998Z,13972.00
2019-04-29T11:17:58.842Z,13860.00
2019-04-29T11:18:55.036Z,14464.00
2019-04-29T11:19:51.970Z,12416.00
2019-04-29T11:20:53.801Z,14124.00
2019-04-29T11:21:50.947Z,13936.00
2019-04-29T11:22:50.923Z,12704.00
2019-04-29T11:23:54.718Z,12500.00
2019-04-29T11:24:51.930Z,13140.00
2019-04-29T11:25:51.549Z,15228.00
2019-04-29T11:26:50.872Z,13804.00
2019-04-29T11:27:50.868Z,13676.00
2019-04-29T11:28:52.250Z,14812.00
2019-04-29T11:29:50.875Z,17440.00
2019-04-29T11:30:50.864Z,16104.00
2019-04-29T11:31:54.043Z,17000.00
2019-04-29T11:32:50.823Z,15900.00
2019-04-29T11:33:50.811Z,14656.00
2019-04-29T11:34:53.406Z,14288.00
2019-04-29T11:35:50.799Z,13380.00
2019-04-29T11:36:50.783Z,15388.00
2019-04-29T11:37:55.356Z,17248.00
2019-04-29T11:38:51.785Z,16152.00
2019-04-29T11:39:51.724Z,18304.00
2019-04-29T11:40:50.730Z,15260.00
2019-04-29T11:41:54.700Z,14688.00
2019-04-29T11:42:51.717Z,18880.00
2019-04-29T11:43:51.495Z,16532.00
2019-04-29T11:44:50.701Z,14696.00
2019-04-29T11:45:50.672Z,15780.00
2019-04-29T11:46:50.771Z,16232.00
2019-04-29T11:47:50.640Z,12996.00
2019-04-29T11:48:50.643Z,11736.00
2019-04-29T11:49:50.654Z,12984.00
2019-04-29T11:50:54.743Z,13284.00
2019-04-29T11:52:08.252Z,12532.00
2019-04-29T11:52:51.611Z,10580.00
2019-04-29T11:53:50.633Z,11032.00
2019-04-29T11:54:50.580Z,10004.00
2019-04-29T11:55:52.460Z,11392.00
2019-04-29T11:56:51.570Z,10396.00
2019-04-29T11:57:50.545Z,12608.00
2019-04-29T11:58:50.525Z,12916.00
2019-04-29T11:59:50.548Z,13948.00
2019-04-29T12:00:52.127Z,15708.00
2019-04-29T12:01:51.722Z,17376.00
2019-04-29T12:02:50.495Z,17760.00
2019-04-29T12:03:51.341Z,15028.00
2019-04-29T12:04:51.460Z,16528.00
2019-04-29T12:05:50.480Z,17344.00
2019-04-29T12:06:51.331Z,18112.00
2019-04-29T12:07:51.442Z,18944.00
2019-04-29T12:08:53.396Z,19744.00
2019-04-29T12:09:50.427Z,21440.00
2019-04-29T12:11:06.052Z,19008.00
2019-04-29T12:11:51.410Z,17440.00
2019-04-29T12:12:50.468Z,18976.00
2019-04-29T12:13:50.364Z,19040.00
2019-04-29T12:14:50.357Z,19136.00
2019-04-29T12:15:50.364Z,21440.00
2019-04-29T12:16:50.343Z,20384.00
2019-04-29T12:17:50.313Z,20768.00
2019-04-29T12:18:50.314Z,19392.00
2019-04-29T12:19:50.306Z,16160.00
2019-04-29T12:20:50.294Z,19424.00
2019-04-29T12:21:50.303Z,18752.00